< < Back
Terminal Aerodrome Forecast


Current Version              Previous Versions:   1  2  3  4  5  6  7  8  9  

Terminal Aerodrome Forecast

686
FTUS42 KFFC 301139
TAFAHN
TAF
KAHN 301139Z 3012/3112 00000KT P6SM SKC
     FM301700 33005KT P6SM FEW040
     FM310100 02003KT P6SM FEW250=



Latest METAR

729
SAUS70 KWBC 301600
MTRAHN
METAR KAHN 301551Z VRB03KT 10SM CLR 28/18 A3002 RMK AO2 SLP158
T02830178


USA.gov is the U.S. government's official web portal to all federal, state and local government web resources and services.